PST,Max TemperatureF,Mean TemperatureF,Min TemperatureF,Max Dew PointF,MeanDew PointF,Min DewpointF,Max Humidity, Mean Humidity, Min Humidity, Max Sea Level PressureIn, Mean Sea Level PressureIn, Min Sea Level PressureIn, Max VisibilityMiles, Mean VisibilityMiles, Min VisibilityMiles, Max Wind SpeedMPH, Mean Wind SpeedMPH, Max Gust SpeedMPH,PrecipitationIn, CloudCover, Events, WindDirDegrees
2014-1-1,40,37,33,37,34,32,100,96,92,30.38,30.32,30.27,8,2,0,7,1,8,0.00,7,Fog,182
2014-1-2,45,39,33,40,36,33,100,92,83,30.29,30.23,30.15,9,3,0,6,1,8,0.00,3,Fog,198
2014-1-3,49,42,34,46,39,33,100,88,76,30.26,30.19,30.14,10,5,0,10,2,14,0.02,7,Fog,333
2014-1-4,36,34,32,33,32,30,96,89,82,30.38,30.32,30.26,10,10,10,7,2,9,0.00,7,,341
2014-1-5,41,36,30,32,30,27,96,83,70,30.40,30.33,30.27,10,9,5,6,1,7,0.00,4,,245
2014-1-6,43,36,28,39,32,27,100,85,70,30.31,30.24,30.20,8,3,0,5,1,6,0.12,6,Fog-Rain,208
2014-1-7,54,47,40,45,41,38,93,82,71,30.19,30.13,30.06,10,5,2,6,1,9,0.07,8,Rain,202
2014-1-8,57,51,44,47,44,42,93,75,57,30.13,30.09,29.98,10,4,0,12,3,16,0.17,8,Fog-Rain,184
2014-1-9,49,46,42,45,42,39,89,83,76,30.22,30.17,30.10,10,8,4,12,3,14,0.04,7,Rain,145
2014-1-10,53,49,44,46,43,41,93,82,71,30.25,30.17,29.95,10,8,2,5,1,6,T,7,Rain,324
2014-1-11,59,50,41,46,41,37,89,70,51,30.24,29.96,29.80,10,5,1,21,6,30,0.82,7,Rain,197
2014-1-12,51,46,41,45,42,38,93,84,74,30.59,30.44,30.25,10,9,3,9,3,11,0.04,8,Rain,150
2014-1-13,56,47,37,45,42,35,93,77,61,30.68,30.63,30.58,10,7,2,8,1,10,0.00,5,,266
2014-1-14,54,45,36,41,37,34,100,80,59,30.68,30.62,30.57,10,3,0,7,0,12,0.00,4,Fog,340
2014-1-15,49,43,37,39,37,35,93,82,71,30.59,30.52,30.43,10,5,0,7,2,10,0.00,6,Fog,346
2014-1-16,45,41,36,37,35,33,100,85,70,30.47,30.38,30.30,10,4,0,9,2,10,0.00,7,Fog,17
2014-1-17,49,42,34,39,34,32,100,86,71,30.28,30.24,30.18,10,2,0,7,1,9,0.00,4,Fog,231
2014-1-18,51,42,33,41,34,31,100,83,66,30.30,30.23,30.16,10,3,0,6,1,8,0.00,3,Fog,186
2014-1-19,47,41,34,39,35,33,100,88,76,30.24,30.19,30.16,10,2,0,6,1,7,0.00,4,Fog,239
2014-1-20,48,41,34,40,35,32,100,86,71,30.30,30.26,30.21,8,2,0,7,1,8,0.00,3,Fog,235
2014-1-21,51,42,33,39,35,32,100,82,63,30.39,30.33,30.28,10,3,0,7,1,9,0.00,2,Fog,242
2014-1-22,46,40,34,39,35,31,96,86,76,30.38,30.34,30.25,10,5,0,12,2,14,0.00,8,Fog,10
2014-1-23,54,44,34,38,36,31,89,72,54,30.25,30.21,30.12,10,10,6,10,3,14,0.00,4,,4
2014-1-24,62,47,31,38,32,29,100,68,36,30.33,30.27,30.20,10,4,0,6,1,8,0.00,4,Fog,198
2014-1-25,58,45,32,39,33,29,96,72,47,30.39,30.33,30.25,10,4,0,6,0,9,0.00,3,Fog,220
2014-1-26,55,44,32,41,34,30,96,78,59,30.24,30.17,30.06,10,3,0,7,0,9,0.00,3,Fog,173
2014-1-27,48,41,34,42,36,32,92,82,71,30.22,30.17,30.12,8,3,0,6,1,8,0.01,5,Fog-Rain,264
2014-1-28,55,50,45,50,46,42,96,90,83,30.24,30.17,30.04,8,3,0,5,0,6,0.29,8,Fog-Rain,239
2014-1-29,59,52,45,50,46,41,96,77,57,30.05,30.02,29.99,10,6,0,16,4,23,0.06,8,Fog-Rain,233
2014-1-30,51,45,38,43,38,33,89,70,50,30.09,30.03,30.00,10,9,2,10,1,13,0.02,7,Rain,350
2014-1-31,48,42,36,40,37,33,93,79,65,30.20,30.16,30.09,10,6,2,7,2,9,0.10,8,Rain,177